Bennington, Kansas
Current Conditions -  °F | °C
As of 8:53 AM on Thursday 23 Oct 2014 (Local Time) from KSLN Reporting Station
Overcast Overcast  
Wind Chill: 62°   Ceiling: 3000
Heat Index: 62°   Visibility: 8mi
Dew Point: 59°   Wind: 6mph
Humidity: 90%   Direction: 170°S
Pressure: 30.08"   Gusts: NA
Location:  39.03°N, 97.59°W
Report Text: KSLN 231353Z 17005KT 8SM OVC030 17/15 A3008 RMK AO2 SLP181 T01670150
Loading
Personal Weather Stations






























Interactive Weather Map
Tropical Storm Tracking
New forecast layout! Learn more

10-Day Weather Forecast

Advertisements
Track Severe Weather on mobile